createdAt,value
2022-08-03T00:08:58.426Z,6.80
2022-08-03T00:23:59.575Z,5.80
2022-08-03T00:39:00.802Z,8.30
2022-08-03T00:54:02.023Z,8.20
2022-08-03T01:09:03.148Z,8.70
2022-08-03T01:24:04.418Z,6.00
2022-08-03T01:39:05.591Z,6.70
2022-08-03T01:54:06.154Z,8.00
2022-08-03T02:09:06.895Z,7.70
2022-08-03T02:24:08.009Z,7.30
2022-08-03T02:39:09.316Z,7.30
2022-08-03T02:54:10.440Z,7.40
2022-08-03T03:09:11.550Z,8.50
2022-08-03T03:24:12.684Z,8.90
2022-08-03T03:39:15.200Z,9.10
2022-08-03T03:54:17.654Z,9.30
2022-08-03T04:09:19.161Z,8.50
2022-08-03T04:24:19.897Z,8.70
2022-08-03T04:39:21.609Z,30.30
2022-08-03T04:54:22.734Z,30.50
2022-08-03T05:09:50.129Z,14.20
2022-08-03T05:24:29.691Z,7.80
2022-08-03T05:39:30.405Z,5.00
2022-08-03T05:54:56.326Z,4.20
2022-08-03T06:10:35.409Z,6.00
2022-08-03T06:24:53.664Z,3.20
2022-08-03T06:39:52.398Z,139.70
2022-08-03T06:54:53.149Z,1999.90
2022-08-03T07:09:57.640Z,1999.90
2022-08-03T07:24:58.460Z,1999.90
2022-08-03T07:39:59.584Z,1999.90
2022-08-03T07:55:00.739Z,1999.90
2022-08-03T08:10:01.941Z,1999.90
2022-08-03T08:25:03.036Z,1999.90
2022-08-03T08:40:03.758Z,1999.90
2022-08-03T08:55:03.844Z,1999.90
2022-08-03T09:10:12.495Z,1502.80
2022-08-03T09:25:25.233Z,1999.90
2022-08-03T09:40:16.920Z,1999.90
2022-08-03T09:56:32.737Z,1999.90
2022-08-03T10:10:30.403Z,1999.90
2022-08-03T10:25:33.177Z,1999.90
2022-08-03T10:40:51.839Z,1999.90
2022-08-03T10:55:40.757Z,1999.90
2022-08-03T11:10:41.976Z,1999.90
2022-08-03T11:25:55.119Z,1999.90
2022-08-03T11:40:49.672Z,1999.90
2022-08-03T11:55:50.929Z,1999.90
2022-08-03T12:10:52.004Z,1999.90
2022-08-03T12:25:53.232Z,1999.90
2022-08-03T12:40:56.370Z,1999.90
2022-08-03T12:56:05.903Z,1999.90
2022-08-03T13:11:03.767Z,1999.90
2022-08-03T13:26:04.973Z,1999.90
2022-08-03T13:41:06.491Z,1999.90
2022-08-03T13:56:06.947Z,1999.90
2022-08-03T14:11:08.007Z,1999.90
2022-08-03T14:26:09.705Z,1999.90
2022-08-03T14:41:12.334Z,1999.90
2022-08-03T14:56:15.542Z,1999.90
2022-08-03T15:11:16.263Z,1999.90
2022-08-03T15:26:32.700Z,1999.90
2022-08-03T15:41:23.657Z,1999.90
2022-08-03T15:56:24.795Z,1999.90
2022-08-03T16:11:28.010Z,1999.90
2022-08-03T16:26:28.723Z,1999.90
2022-08-03T16:41:53.494Z,1999.90
2022-08-03T16:56:39.051Z,1999.90
2022-08-03T17:11:46.861Z,1999.90
2022-08-03T17:26:49.956Z,1999.90
2022-08-03T17:41:51.109Z,1999.90
2022-08-03T17:56:52.348Z,1999.90
2022-08-03T18:11:53.500Z,404.50
2022-08-03T18:26:55.683Z,94.20
2022-08-03T18:41:57.931Z,60.90
2022-08-03T18:57:00.001Z,1119.10
2022-08-03T19:12:11.237Z,1999.90
2022-08-03T19:27:06.757Z,883.10
2022-08-03T19:42:20.073Z,887.50
2022-08-03T19:57:18.728Z,244.50
2022-08-03T20:12:20.402Z,684.30
2022-08-03T20:27:30.242Z,64.30
2022-08-03T20:42:31.027Z,10.90
2022-08-03T20:57:33.161Z,10.70
2022-08-03T21:12:33.751Z,11.00
2022-08-03T21:27:34.972Z,12.00
2022-08-03T21:42:36.151Z,7.60
2022-08-03T21:57:38.420Z,0.70
2022-08-03T22:12:40.789Z,9.20
2022-08-03T22:27:41.402Z,7.40
2022-08-03T22:42:41.661Z,9.40
2022-08-03T22:57:41.987Z,8.70
2022-08-03T23:12:42.563Z,7.20
2022-08-03T23:27:43.816Z,8.60
2022-08-03T23:42:45.011Z,10.30
2022-08-03T23:57:46.265Z,7.60
